createdAt,value
2022-09-11T00:01:36.579Z,7.10
2022-09-11T00:04:04.201Z,7.20
2022-09-11T00:06:31.198Z,7.10
2022-09-11T00:09:04.505Z,6.73
2022-09-11T00:11:42.048Z,7.17
2022-09-11T00:14:13.771Z,6.63
2022-09-11T00:16:46.007Z,6.77
2022-09-11T00:19:19.908Z,7.33
2022-09-11T00:21:50.404Z,6.83
2022-09-11T00:24:17.730Z,6.50
2022-09-11T00:26:47.388Z,6.30
2022-09-11T00:29:14.371Z,6.50
2022-09-11T00:31:41.785Z,5.70
2022-09-11T00:34:09.518Z,6.80
2022-09-11T00:36:37.572Z,6.33
2022-09-11T00:39:05.012Z,6.73
2022-09-11T00:41:40.003Z,6.20
2022-09-11T00:44:28.314Z,6.80
2022-09-11T00:47:03.173Z,6.83
2022-09-11T00:49:39.679Z,7.07
2022-09-11T00:52:31.039Z,6.13
2022-09-11T00:55:04.949Z,7.20
2022-09-11T00:58:01.777Z,7.57
2022-09-11T01:00:28.696Z,7.33
2022-09-11T01:02:56.792Z,7.90
2022-09-11T01:05:28.036Z,6.97
2022-09-11T01:07:56.551Z,8.60
2022-09-11T01:11:07.295Z,9.77
2022-09-11T01:14:34.513Z,8.53
2022-09-11T01:17:20.398Z,6.83
2022-09-11T01:20:33.282Z,7.80
2022-09-11T01:23:31.564Z,8.00
2022-09-11T01:26:32.603Z,7.90
2022-09-11T01:29:25.422Z,7.57
2022-09-11T01:32:11.705Z,8.40
2022-09-11T01:34:55.534Z,11.10
2022-09-11T01:37:52.031Z,8.93
2022-09-11T01:40:36.699Z,8.10
2022-09-11T01:43:17.208Z,10.20
2022-09-11T01:45:47.201Z,8.07
2022-09-11T01:48:27.025Z,7.67
2022-09-11T01:50:56.971Z,7.47
2022-09-11T01:53:33.432Z,6.77
2022-09-11T01:56:11.011Z,8.97
2022-09-11T01:58:39.536Z,13.83
2022-09-11T02:01:23.139Z,8.70
2022-09-11T02:04:37.704Z,12.47
2022-09-11T02:07:16.904Z,11.30
2022-09-11T02:10:03.153Z,13.13
2022-09-11T02:13:36.992Z,14.07
2022-09-11T02:16:52.747Z,11.03
2022-09-11T02:19:29.863Z,12.70
2022-09-11T02:22:00.243Z,12.10
2022-09-11T02:24:28.411Z,7.23
2022-09-11T02:27:08.419Z,10.40
2022-09-11T02:29:36.982Z,12.67
2022-09-11T02:32:04.613Z,11.97
2022-09-11T02:34:39.904Z,9.63
2022-09-11T02:37:41.940Z,7.97
2022-09-11T02:40:51.591Z,12.20
2022-09-11T02:43:42.947Z,9.80
2022-09-11T02:47:05.515Z,10.13
2022-09-11T02:50:10.385Z,11.70
2022-09-11T02:53:10.553Z,9.07
2022-09-11T02:56:07.982Z,11.43
2022-09-11T02:58:46.313Z,11.27
2022-09-11T03:01:13.431Z,13.63
2022-09-11T03:03:46.439Z,12.80
2022-09-11T03:06:27.290Z,14.53
2022-09-11T03:08:54.356Z,12.50
2022-09-11T03:11:21.460Z,15.83
2022-09-11T03:13:48.457Z,10.63
2022-09-11T03:16:15.450Z,14.17
2022-09-11T03:18:42.416Z,9.77
2022-09-11T03:21:11.371Z,14.53
2022-09-11T03:23:38.616Z,12.60
2022-09-11T03:26:05.631Z,13.30
2022-09-11T03:28:34.090Z,12.47
2022-09-11T03:31:01.130Z,12.03
2022-09-11T03:33:28.144Z,14.93
2022-09-11T03:35:55.207Z,12.80
2022-09-11T03:38:22.198Z,13.37
2022-09-11T03:40:49.273Z,12.03
2022-09-11T03:43:16.704Z,13.77
2022-09-11T03:45:44.772Z,14.47
2022-09-11T03:48:11.916Z,11.23
2022-09-11T03:50:38.864Z,11.83
2022-09-11T03:53:05.857Z,9.07
2022-09-11T03:55:33.194Z,9.67
2022-09-11T03:58:00.399Z,11.57
2022-09-11T04:00:27.741Z,12.87
2022-09-11T04:02:58.106Z,15.53
2022-09-11T04:05:25.333Z,16.53
2022-09-11T04:07:55.089Z,15.93
2022-09-11T04:10:22.372Z,20.63
2022-09-11T04:12:49.341Z,20.03
2022-09-11T04:15:16.407Z,22.30
2022-09-11T04:17:43.505Z,18.83
2022-09-11T04:20:10.929Z,18.50
2022-09-11T04:22:39.327Z,20.70
2022-09-11T04:25:07.611Z,18.77
2022-09-11T04:27:34.675Z,17.17
2022-09-11T04:30:01.589Z,18.83
2022-09-11T04:32:29.214Z,20.70
2022-09-11T04:34:56.326Z,18.57
2022-09-11T04:37:23.305Z,19.70
2022-09-11T04:39:50.490Z,18.93
2022-09-11T04:42:17.560Z,17.83
2022-09-11T04:44:44.484Z,17.30
2022-09-11T04:47:11.434Z,20.37
2022-09-11T04:49:38.393Z,19.07
2022-09-11T04:52:07.223Z,20.73
2022-09-11T04:54:34.217Z,20.03
2022-09-11T04:57:04.294Z,21.97
2022-09-11T04:59:31.263Z,22.03
2022-09-11T05:01:58.258Z,21.07
2022-09-11T05:04:26.538Z,21.07
2022-09-11T05:06:53.698Z,20.90
2022-09-11T05:09:20.823Z,19.90
2022-09-11T05:11:48.297Z,27.73
2022-09-11T05:14:15.327Z,19.57
2022-09-11T05:16:43.713Z,21.57
2022-09-11T05:19:11.035Z,19.37
2022-09-11T05:21:38.264Z,24.33
2022-09-11T05:24:05.312Z,19.47
2022-09-11T05:26:37.131Z,23.33
2022-09-11T05:29:14.968Z,20.27
2022-09-11T05:31:42.594Z,23.77
2022-09-11T05:34:09.804Z,16.57
2022-09-11T05:36:36.942Z,19.10
2022-09-11T05:39:04.467Z,27.53
2022-09-11T05:41:31.441Z,23.13
2022-09-11T05:43:59.175Z,22.67
2022-09-11T05:46:26.325Z,24.30
2022-09-11T05:48:53.645Z,24.23
2022-09-11T05:51:22.307Z,21.40
2022-09-11T05:53:54.420Z,21.73
2022-09-11T05:56:26.145Z,20.27
2022-09-11T05:58:53.312Z,20.40
2022-09-11T06:01:24.917Z,23.13
2022-09-11T06:03:52.862Z,20.93
2022-09-11T06:06:22.923Z,19.83
2022-09-11T06:08:51.749Z,15.43
2022-09-11T06:11:20.764Z,18.47
2022-09-11T06:13:49.202Z,20.83
2022-09-11T06:16:23.136Z,22.50
2022-09-11T06:18:53.035Z,21.13
2022-09-11T06:21:24.260Z,20.70
2022-09-11T06:23:53.162Z,18.97
2022-09-11T06:26:26.549Z,20.13
2022-09-11T06:28:54.281Z,19.00
2022-09-11T06:31:25.766Z,14.23
2022-09-11T06:33:56.074Z,18.53
2022-09-11T06:36:32.561Z,17.27
2022-09-11T06:38:59.636Z,17.73
2022-09-11T06:41:28.170Z,18.93
2022-09-11T06:43:55.295Z,20.20
2022-09-11T06:46:24.977Z,20.40
2022-09-11T06:48:53.774Z,20.57
2022-09-11T06:51:23.182Z,19.60
2022-09-11T06:53:58.095Z,21.13
2022-09-11T06:56:25.736Z,21.20
2022-09-11T06:58:52.885Z,21.93
2022-09-11T07:01:22.239Z,22.17
2022-09-11T07:03:53.679Z,18.50
2022-09-11T07:06:27.615Z,20.77
2022-09-11T07:09:01.558Z,17.53
2022-09-11T07:11:32.364Z,17.87
2022-09-11T07:14:05.813Z,17.33
2022-09-11T07:16:33.782Z,18.57
2022-09-11T07:19:01.377Z,17.60
2022-09-11T07:21:28.822Z,16.13
2022-09-11T07:24:00.024Z,16.57
2022-09-11T07:26:29.487Z,16.67
2022-09-11T07:28:58.305Z,16.17
2022-09-11T07:31:30.281Z,16.23
2022-09-11T07:33:57.593Z,17.50
2022-09-11T07:36:28.731Z,17.40
2022-09-11T07:38:56.422Z,15.00
2022-09-11T07:41:27.931Z,16.40
2022-09-11T07:44:00.203Z,15.23
2022-09-11T07:46:29.858Z,16.20
2022-09-11T07:48:57.271Z,15.33
2022-09-11T07:51:25.666Z,14.37
2022-09-11T07:53:54.304Z,14.17
2022-09-11T07:56:25.607Z,13.90
2022-09-11T07:58:55.105Z,12.97
2022-09-11T08:01:33.213Z,15.23
2022-09-11T08:04:07.270Z,13.63
2022-09-11T08:06:37.472Z,13.37
2022-09-11T08:09:14.698Z,13.77
2022-09-11T08:11:48.815Z,12.38
2022-09-11T08:14:17.601Z,12.10
2022-09-11T08:16:45.272Z,13.50
2022-09-11T08:19:19.571Z,11.27
2022-09-11T08:21:47.761Z,12.93
2022-09-11T08:24:17.109Z,12.75
2022-09-11T08:26:48.723Z,11.63
2022-09-11T08:29:16.309Z,10.80
2022-09-11T08:31:43.837Z,11.27
2022-09-11T08:34:11.118Z,10.93
2022-09-11T08:36:38.649Z,11.27
2022-09-11T08:39:05.769Z,9.88
2022-09-11T08:41:53.637Z,10.70
2022-09-11T08:44:30.984Z,10.27
2022-09-11T08:47:16.505Z,9.45
2022-09-11T08:49:55.186Z,9.35
2022-09-11T08:52:22.303Z,7.38
2022-09-11T08:54:50.543Z,7.63
2022-09-11T08:57:48.859Z,9.30
2022-09-11T09:00:32.046Z,7.22
2022-09-11T09:03:41.985Z,7.43
2022-09-11T09:07:01.456Z,7.40
2022-09-11T09:10:07.724Z,8.07
2022-09-11T09:13:08.458Z,8.40
2022-09-11T09:16:05.146Z,8.18
2022-09-11T09:18:48.814Z,7.20
2022-09-11T09:21:38.545Z,7.85
2022-09-11T09:24:21.185Z,7.80
2022-09-11T09:26:53.356Z,7.72
2022-09-11T09:29:36.036Z,7.30
2022-09-11T09:32:32.328Z,7.22
2022-09-11T09:35:10.817Z,7.47
2022-09-11T09:37:41.702Z,7.20
2022-09-11T09:40:10.917Z,7.75
2022-09-11T09:43:01.962Z,8.00
2022-09-11T09:45:43.754Z,8.15
2022-09-11T09:48:12.153Z,7.95
2022-09-11T09:50:43.900Z,7.18
2022-09-11T09:53:48.462Z,7.60
2022-09-11T09:56:19.228Z,7.68
2022-09-11T09:59:03.021Z,7.18
2022-09-11T10:01:48.287Z,6.82
2022-09-11T10:04:27.996Z,6.20
2022-09-11T10:07:11.339Z,5.55
2022-09-11T10:10:03.585Z,5.28
2022-09-11T10:12:34.781Z,5.50
2022-09-11T10:15:03.935Z,4.57
2022-09-11T10:17:33.329Z,4.80
2022-09-11T10:20:18.558Z,5.20
2022-09-11T10:22:46.354Z,6.00
2022-09-11T10:25:27.842Z,11.82
2022-09-11T10:28:17.319Z,6.93
2022-09-11T10:30:59.250Z,6.60
2022-09-11T10:33:38.383Z,7.20
2022-09-11T10:36:09.933Z,6.57
2022-09-11T10:38:48.126Z,6.72
2022-09-11T10:41:22.642Z,6.28
2022-09-11T10:44:12.003Z,7.18
2022-09-11T10:46:41.953Z,6.95
2022-09-11T10:49:23.279Z,4.90
2022-09-11T10:52:16.431Z,5.57
2022-09-11T10:55:15.732Z,6.57
2022-09-11T10:57:52.559Z,5.95
2022-09-11T11:00:30.094Z,6.55
2022-09-11T11:03:06.237Z,6.50
2022-09-11T11:05:54.979Z,4.82
2022-09-11T11:09:01.890Z,5.13
2022-09-11T11:12:09.754Z,5.82
2022-09-11T11:15:53.354Z,5.53
2022-09-11T11:18:50.138Z,5.70
2022-09-11T11:22:08.882Z,5.10
2022-09-11T11:25:03.273Z,5.20
2022-09-11T11:28:11.755Z,4.95
2022-09-11T11:30:51.436Z,4.82
2022-09-11T11:33:42.462Z,5.25
2022-09-11T11:36:40.862Z,4.60
2022-09-11T11:39:50.143Z,5.22
2022-09-11T11:42:31.226Z,4.32
2022-09-11T11:45:21.646Z,4.50
2022-09-11T11:47:51.334Z,3.78
2022-09-11T11:50:45.605Z,3.70
2022-09-11T11:53:19.732Z,3.33
2022-09-11T11:56:40.721Z,3.55
2022-09-11T11:59:20.432Z,2.95
2022-09-11T12:02:09.662Z,3.03
2022-09-11T12:04:55.708Z,1.90
2022-09-11T12:07:27.575Z,2.13
2022-09-11T12:09:57.432Z,2.38
2022-09-11T12:12:29.430Z,2.38
2022-09-11T12:15:10.239Z,2.67
2022-09-11T12:17:39.908Z,2.88
2022-09-11T12:20:43.482Z,2.78
2022-09-11T12:23:54.862Z,3.33
2022-09-11T12:26:27.469Z,3.30
2022-09-11T12:29:13.054Z,3.00
2022-09-11T12:31:51.749Z,3.00
2022-09-11T12:34:41.593Z,2.60
2022-09-11T12:37:25.214Z,2.53
2022-09-11T12:40:05.747Z,2.53
2022-09-11T12:42:32.645Z,2.95
2022-09-11T12:45:00.086Z,2.63
2022-09-11T12:47:39.687Z,2.30
2022-09-11T12:50:12.197Z,2.20
2022-09-11T12:52:45.246Z,2.50
2022-09-11T12:55:50.899Z,2.92
2022-09-11T12:58:18.832Z,3.10
2022-09-11T13:01:11.040Z,3.17
2022-09-11T13:03:49.892Z,3.30
2022-09-11T13:06:17.404Z,3.17
2022-09-11T13:09:01.291Z,3.17
2022-09-11T13:11:49.143Z,3.28
2022-09-11T13:14:47.666Z,3.15
2022-09-11T13:17:30.189Z,3.22
2022-09-11T13:20:21.902Z,2.40
2022-09-11T13:22:56.087Z,2.53
2022-09-11T13:25:27.907Z,2.38
2022-09-11T13:28:01.169Z,2.80
2022-09-11T13:30:28.329Z,3.05
2022-09-11T13:33:11.253Z,2.50
2022-09-11T13:35:43.673Z,2.60
2022-09-11T13:38:23.423Z,2.40
2022-09-11T13:41:08.128Z,2.60
2022-09-11T13:43:44.552Z,2.50
2022-09-11T13:46:32.330Z,2.90
2022-09-11T13:49:07.948Z,2.83
2022-09-11T13:51:39.231Z,2.85
2022-09-11T13:54:29.639Z,2.83
2022-09-11T13:56:56.354Z,3.03
2022-09-11T13:59:39.778Z,2.88
2022-09-11T14:02:24.122Z,2.65
2022-09-11T14:04:53.973Z,2.55
2022-09-11T14:07:26.463Z,2.38
2022-09-11T14:10:43.430Z,2.05
2022-09-11T14:13:35.512Z,2.00
2022-09-11T14:16:33.405Z,2.30
2022-09-11T14:19:14.782Z,1.92
2022-09-11T14:21:46.496Z,2.15
2022-09-11T14:27:02.414Z,2.33
2022-09-11T14:29:36.360Z,2.22
2022-09-11T14:32:37.210Z,2.40
2022-09-11T14:35:08.521Z,2.08
2022-09-11T14:37:45.701Z,2.45
2022-09-11T14:40:19.369Z,1.98
2022-09-11T14:42:47.243Z,1.85
2022-09-11T14:45:25.991Z,2.05
2022-09-11T14:47:53.515Z,1.75
2022-09-11T14:50:21.170Z,1.90
2022-09-11T14:52:48.120Z,2.00
2022-09-11T14:55:19.127Z,2.10
2022-09-11T14:57:46.704Z,2.00
2022-09-11T15:00:19.206Z,1.90
2022-09-11T15:02:47.081Z,1.63
2022-09-11T15:05:22.888Z,1.90
2022-09-11T15:07:50.060Z,2.00
2022-09-11T15:10:17.008Z,2.15
2022-09-11T15:12:44.669Z,2.30
2022-09-11T15:15:11.816Z,1.80
2022-09-11T15:17:39.957Z,1.88
2022-09-11T15:20:10.085Z,1.50
2022-09-11T15:22:38.362Z,1.70
2022-09-11T15:25:06.630Z,1.88
2022-09-11T15:27:34.338Z,1.23
2022-09-11T15:30:01.350Z,1.50
2022-09-11T15:32:28.470Z,1.70
2022-09-11T15:34:55.531Z,1.70
2022-09-11T15:37:23.629Z,1.85
2022-09-11T15:39:51.116Z,1.67
2022-09-11T15:42:19.268Z,1.85
2022-09-11T15:44:46.288Z,1.40
2022-09-11T15:47:13.964Z,1.85
2022-09-11T15:49:44.414Z,1.80
2022-09-11T15:52:12.482Z,2.25
2022-09-11T15:54:39.530Z,1.70
2022-09-11T15:57:07.585Z,1.75
2022-09-11T15:59:34.782Z,1.70
2022-09-11T16:02:01.856Z,1.63
2022-09-11T16:04:32.117Z,1.65
2022-09-11T16:06:59.661Z,1.50
2022-09-11T16:09:30.415Z,1.95
2022-09-11T16:12:00.201Z,1.80
2022-09-11T16:14:34.411Z,1.60
2022-09-11T16:17:05.411Z,2.22
2022-09-11T16:19:33.264Z,2.67
2022-09-11T16:22:04.214Z,1.80
2022-09-11T16:24:37.677Z,2.70
2022-09-11T16:27:09.849Z,2.60
2022-09-11T16:30:15.909Z,2.70
2022-09-11T16:32:31.872Z,3.35
2022-09-11T16:34:59.773Z,3.83
2022-09-11T16:37:28.290Z,4.32
2022-09-11T16:39:55.589Z,3.40
2022-09-11T16:42:22.674Z,4.07
2022-09-11T16:44:50.224Z,3.58
2022-09-11T16:47:18.175Z,2.80
2022-09-11T16:50:05.809Z,3.08
2022-09-11T16:52:32.672Z,2.35
2022-09-11T16:54:59.925Z,3.20
2022-09-11T16:57:29.977Z,3.78
2022-09-11T16:59:57.242Z,3.22
2022-09-11T17:02:24.230Z,3.35
2022-09-11T17:04:51.290Z,3.33
2022-09-11T17:07:18.755Z,3.50
2022-09-11T17:09:48.737Z,2.70
2022-09-11T17:12:17.764Z,3.53
2022-09-11T17:14:44.743Z,4.25
2022-09-11T17:17:11.777Z,5.53
2022-09-11T17:19:38.989Z,4.90
2022-09-11T17:22:06.592Z,5.00
2022-09-11T17:24:33.793Z,4.88
2022-09-11T17:27:03.575Z,5.22
2022-09-11T17:29:30.561Z,5.47
2022-09-11T17:32:16.755Z,5.90
2022-09-11T17:34:44.578Z,7.93
2022-09-11T17:37:11.541Z,6.03
2022-09-11T17:39:38.685Z,5.17
2022-09-11T17:42:11.017Z,6.13
2022-09-11T17:44:41.237Z,4.83
2022-09-11T17:47:08.232Z,6.28
2022-09-11T17:49:35.177Z,5.13
2022-09-11T17:52:02.481Z,5.43
2022-09-11T17:54:29.506Z,5.13
2022-09-11T17:56:58.026Z,5.97
2022-09-11T17:59:25.095Z,11.03
2022-09-11T18:01:52.179Z,6.00
2022-09-11T18:04:19.173Z,5.60
2022-09-11T18:06:46.670Z,4.90
2022-09-11T18:09:19.568Z,4.95
2022-09-11T18:11:51.126Z,5.50
2022-09-11T18:14:19.516Z,4.90
2022-09-11T18:16:47.813Z,5.82
2022-09-11T18:19:20.107Z,5.53
2022-09-11T18:21:50.348Z,5.63
2022-09-11T18:24:20.085Z,6.43
2022-09-11T18:26:57.207Z,6.67
2022-09-11T18:29:27.073Z,7.83
2022-09-11T18:31:54.620Z,7.90
2022-09-11T18:34:27.567Z,8.57
2022-09-11T18:36:54.704Z,6.70
2022-09-11T18:39:22.334Z,7.60
2022-09-11T18:41:52.462Z,7.75
2022-09-11T18:44:22.562Z,8.30
2022-09-11T18:46:54.446Z,6.50
2022-09-11T18:49:22.530Z,7.30
2022-09-11T18:51:49.666Z,8.87
2022-09-11T18:54:23.161Z,9.43
2022-09-11T18:56:51.022Z,9.07
2022-09-11T18:59:19.338Z,8.37
2022-09-11T19:01:46.534Z,9.50
2022-09-11T19:04:14.619Z,11.13
2022-09-11T19:06:41.662Z,10.90
2022-09-11T19:09:12.608Z,9.73
2022-09-11T19:11:40.785Z,10.97
2022-09-11T19:14:11.188Z,9.80
2022-09-11T19:16:39.468Z,9.93
2022-09-11T19:19:07.997Z,14.67
2022-09-11T19:21:36.288Z,15.33
2022-09-11T19:24:03.462Z,12.77
2022-09-11T19:26:38.863Z,15.90
2022-09-11T19:29:12.484Z,14.77
2022-09-11T19:31:40.412Z,15.20
2022-09-11T19:34:11.805Z,15.27
2022-09-11T19:36:41.046Z,17.83
2022-09-11T19:39:10.344Z,15.43
2022-09-11T19:41:39.789Z,15.10
2022-09-11T19:44:12.261Z,14.57
2022-09-11T19:46:40.943Z,16.37
2022-09-11T19:49:09.230Z,18.20
2022-09-11T19:51:44.852Z,17.00
2022-09-11T19:54:14.285Z,18.03
2022-09-11T19:56:42.430Z,15.30
2022-09-11T19:59:09.835Z,16.60
2022-09-11T20:01:37.458Z,18.63
2022-09-11T20:04:05.440Z,17.80
2022-09-11T20:06:35.487Z,19.40
2022-09-11T20:11:51.731Z,18.40
2022-09-11T20:14:18.779Z,17.30
2022-09-11T20:16:45.834Z,17.53
2022-09-11T20:19:14.728Z,18.33
2022-09-11T20:21:41.767Z,19.93
2022-09-11T20:24:09.201Z,13.50
2022-09-11T20:26:36.472Z,13.93
2022-09-11T20:29:13.711Z,18.23
2022-09-11T20:31:47.863Z,19.23
2022-09-11T20:34:18.166Z,17.30
2022-09-11T20:36:45.606Z,19.13
2022-09-11T20:39:14.103Z,17.10
2022-09-11T20:41:41.158Z,16.87
2022-09-11T20:44:08.294Z,19.50
2022-09-11T20:46:35.413Z,18.17
2022-09-11T20:49:03.978Z,17.87
2022-09-11T20:51:32.099Z,17.60
2022-09-11T20:54:00.483Z,17.93
2022-09-11T20:56:28.282Z,19.73
2022-09-11T20:58:55.729Z,18.30
2022-09-11T21:01:34.251Z,19.93
2022-09-11T21:04:04.462Z,21.43
2022-09-11T21:06:34.826Z,17.70
2022-09-11T21:09:10.923Z,15.00
2022-09-11T21:11:40.029Z,13.63
2022-09-11T21:14:07.490Z,14.17
2022-09-11T21:16:34.624Z,12.83
2022-09-11T21:19:03.253Z,12.97
2022-09-11T21:21:32.588Z,13.43
2022-09-11T21:24:04.043Z,15.23
2022-09-11T21:26:33.242Z,12.60
2022-09-11T21:29:05.707Z,13.20
2022-09-11T21:31:34.090Z,12.43
2022-09-11T21:34:02.154Z,11.33
2022-09-11T21:36:29.399Z,9.43
2022-09-11T21:38:56.393Z,8.20
2022-09-11T21:41:23.339Z,8.13
2022-09-11T21:43:50.282Z,6.97
2022-09-11T21:46:17.636Z,5.43
2022-09-11T21:48:44.675Z,5.80
2022-09-11T21:51:19.908Z,8.10
2022-09-11T21:53:49.735Z,7.50
2022-09-11T21:56:29.374Z,5.50
2022-09-11T21:58:57.285Z,6.77
2022-09-11T22:01:27.006Z,7.03
2022-09-11T22:03:54.818Z,6.83
2022-09-11T22:06:24.379Z,5.60
2022-09-11T22:08:53.330Z,5.90
2022-09-11T22:11:21.004Z,6.43
2022-09-11T22:13:48.036Z,5.73
2022-09-11T22:16:19.044Z,5.20
2022-09-11T22:18:53.299Z,6.43
2022-09-11T22:21:20.318Z,6.60
2022-09-11T22:23:47.362Z,6.40
2022-09-11T22:26:21.048Z,6.43
2022-09-11T22:28:48.296Z,7.47
2022-09-11T22:31:24.369Z,6.20
2022-09-11T22:33:53.657Z,6.50
2022-09-11T22:36:27.822Z,7.93
2022-09-11T22:38:55.735Z,7.63
2022-09-11T22:41:23.482Z,7.13
2022-09-11T22:43:50.640Z,7.67
2022-09-11T22:46:20.643Z,7.57
2022-09-11T22:48:48.538Z,7.30
2022-09-11T22:51:16.586Z,6.80
2022-09-11T22:53:43.849Z,6.60
2022-09-11T22:56:11.356Z,6.73
2022-09-11T22:58:38.572Z,7.07
2022-09-11T23:01:09.771Z,7.27
2022-09-11T23:03:37.187Z,7.13
2022-09-11T23:06:23.545Z,6.73
2022-09-11T23:08:50.736Z,5.93
2022-09-11T23:11:19.944Z,6.83
2022-09-11T23:13:48.544Z,7.07
2022-09-11T23:16:22.826Z,6.10
2022-09-11T23:18:59.693Z,5.50
2022-09-11T23:21:28.346Z,6.23
2022-09-11T23:23:58.062Z,6.87
2022-09-11T23:26:27.947Z,6.57
2022-09-11T23:28:55.754Z,6.93
2022-09-11T23:31:27.814Z,8.37
2022-09-11T23:33:59.092Z,6.73
2022-09-11T23:36:28.548Z,5.40
2022-09-11T23:38:56.101Z,5.87
2022-09-11T23:41:23.877Z,5.37
2022-09-11T23:43:51.307Z,5.63
2022-09-11T23:46:19.074Z,6.33
2022-09-11T23:48:46.649Z,6.20
2022-09-11T23:51:15.530Z,5.70
2022-09-11T23:53:45.213Z,7.43
2022-09-11T23:56:14.410Z,7.70
2022-09-11T23:58:42.126Z,7.07
